createdAt,value
2022-10-28T00:01:20.941Z,5.32
2022-10-28T00:03:53.083Z,5.18
2022-10-28T00:06:22.758Z,5.38
2022-10-28T00:08:49.537Z,5.75
2022-10-28T00:11:17.364Z,5.13
2022-10-28T00:13:45.551Z,5.28
2022-10-28T00:16:14.034Z,6.03
2022-10-28T00:18:41.371Z,5.20
2022-10-28T00:21:19.901Z,5.03
2022-10-28T00:23:46.482Z,5.67
2022-10-28T00:26:16.765Z,5.32
2022-10-28T00:28:45.633Z,5.43
2022-10-28T00:31:13.894Z,5.50
2022-10-28T00:33:40.864Z,5.53
2022-10-28T00:36:09.570Z,5.50
2022-10-28T00:38:36.295Z,5.07
2022-10-28T00:41:02.781Z,6.35
2022-10-28T00:43:41.516Z,5.45
2022-10-28T00:46:15.257Z,4.97
2022-10-28T00:48:45.548Z,5.30
2022-10-28T00:51:13.201Z,5.03
2022-10-28T00:53:42.636Z,5.05
2022-10-28T00:56:11.520Z,5.80
2022-10-28T00:58:38.765Z,5.82
2022-10-28T01:01:05.411Z,5.30
2022-10-28T01:03:32.975Z,5.88
2022-10-28T01:06:01.122Z,6.80
2022-10-28T01:08:27.677Z,5.90
2022-10-28T01:10:57.272Z,5.43
2022-10-28T01:13:36.965Z,5.27
2022-10-28T01:16:28.458Z,4.80
2022-10-28T01:19:07.533Z,5.63
2022-10-28T01:21:51.385Z,5.03
2022-10-28T01:24:42.582Z,5.00
2022-10-28T01:27:27.818Z,5.30
2022-10-28T01:30:24.126Z,4.80
2022-10-28T01:33:33.450Z,5.25
2022-10-28T01:36:34.189Z,6.95
2022-10-28T01:39:30.833Z,5.05
2022-10-28T01:42:08.823Z,5.33
2022-10-28T01:45:01.547Z,5.25
2022-10-28T01:47:53.803Z,5.28
2022-10-28T01:50:38.071Z,5.40
2022-10-28T01:53:10.802Z,4.65
2022-10-28T01:55:41.535Z,4.97
2022-10-28T01:58:12.315Z,5.50
2022-10-28T02:00:39.860Z,4.95
2022-10-28T02:03:09.746Z,5.10
2022-10-28T02:05:45.440Z,4.70
2022-10-28T02:08:17.800Z,4.63
2022-10-28T02:11:21.606Z,4.68
2022-10-28T02:14:15.635Z,4.63
2022-10-28T02:16:50.195Z,5.13
2022-10-28T02:19:38.294Z,4.55
2022-10-28T02:22:15.793Z,5.37
2022-10-28T02:24:54.477Z,5.20
2022-10-28T02:27:48.545Z,4.88
2022-10-28T02:30:32.372Z,5.22
2022-10-28T02:33:03.957Z,4.75
2022-10-28T02:35:45.056Z,5.00
2022-10-28T02:38:18.819Z,4.15
2022-10-28T02:43:20.542Z,5.65
2022-10-28T02:45:51.741Z,4.88
2022-10-28T02:48:31.567Z,4.00
2022-10-28T02:51:13.071Z,4.75
2022-10-28T02:54:09.189Z,4.25
2022-10-28T02:56:40.384Z,4.57
2022-10-28T02:59:12.435Z,4.78
2022-10-28T03:01:40.727Z,4.97
2022-10-28T03:04:07.399Z,4.07
2022-10-28T03:06:34.005Z,4.13
2022-10-28T03:09:00.428Z,4.55
2022-10-28T03:11:27.078Z,4.45
2022-10-28T03:13:53.553Z,3.97
2022-10-28T03:16:20.204Z,4.15
2022-10-28T03:18:46.707Z,4.13
2022-10-28T03:21:13.214Z,4.20
2022-10-28T03:23:39.724Z,4.57
2022-10-28T03:26:06.241Z,3.87
2022-10-28T03:28:32.704Z,4.22
2022-10-28T03:30:59.214Z,4.18
2022-10-28T03:33:25.874Z,4.50
2022-10-28T03:35:52.465Z,3.85
2022-10-28T03:38:19.133Z,4.33
2022-10-28T03:40:48.804Z,4.07
2022-10-28T03:43:15.779Z,4.55
2022-10-28T03:45:42.415Z,5.10
2022-10-28T03:48:08.972Z,4.40
2022-10-28T03:50:35.426Z,3.87
2022-10-28T03:53:02.073Z,3.80
2022-10-28T03:55:28.575Z,4.05
2022-10-28T03:57:55.442Z,4.28
2022-10-28T04:00:22.338Z,4.55
2022-10-28T04:02:53.397Z,4.43
2022-10-28T04:05:21.034Z,4.10
2022-10-28T04:07:48.005Z,4.43
2022-10-28T04:10:15.037Z,3.70
2022-10-28T04:12:41.497Z,3.92
2022-10-28T04:15:08.242Z,4.27
2022-10-28T04:17:34.973Z,4.25
2022-10-28T04:20:01.615Z,3.95
2022-10-28T04:22:28.177Z,4.70
2022-10-28T04:24:54.781Z,4.55
2022-10-28T04:27:21.693Z,3.37
2022-10-28T04:29:48.242Z,4.13
2022-10-28T04:32:14.656Z,3.35
2022-10-28T04:34:41.652Z,3.97
2022-10-28T04:37:08.159Z,4.70
2022-10-28T04:39:34.830Z,3.90
2022-10-28T04:42:01.332Z,4.22
2022-10-28T04:44:27.737Z,3.75
2022-10-28T04:46:56.883Z,3.78
2022-10-28T04:49:23.386Z,3.90
2022-10-28T04:51:49.887Z,3.90
2022-10-28T04:54:16.439Z,3.45
2022-10-28T04:56:43.081Z,3.85
2022-10-28T04:59:09.560Z,4.55
2022-10-28T05:01:36.916Z,3.33
2022-10-28T05:04:03.870Z,3.93
2022-10-28T05:06:30.496Z,3.70
2022-10-28T05:08:56.904Z,4.50
2022-10-28T05:11:24.367Z,4.15
2022-10-28T05:13:53.203Z,3.65
2022-10-28T05:16:20.107Z,4.23
2022-10-28T05:18:46.837Z,4.18
2022-10-28T05:21:13.363Z,3.88
2022-10-28T05:23:39.816Z,4.10
2022-10-28T05:26:06.395Z,3.30
2022-10-28T05:28:32.910Z,4.37
2022-10-28T05:30:59.324Z,4.18
2022-10-28T05:33:25.826Z,3.92
2022-10-28T05:35:52.550Z,3.33
2022-10-28T05:38:19.133Z,3.15
2022-10-28T05:40:45.557Z,3.37
2022-10-28T05:43:12.700Z,3.10
2022-10-28T05:45:39.312Z,2.92
2022-10-28T05:48:06.244Z,4.28
2022-10-28T05:50:32.844Z,3.58
2022-10-28T05:52:59.430Z,4.00
2022-10-28T05:55:28.386Z,3.42
2022-10-28T05:57:55.990Z,3.63
2022-10-28T06:00:25.376Z,3.38
2022-10-28T06:02:52.454Z,3.60
2022-10-28T06:05:19.386Z,3.37
2022-10-28T06:07:45.947Z,3.60
2022-10-28T06:10:12.521Z,4.90
2022-10-28T06:12:37.772Z,4.15
2022-10-28T06:15:04.898Z,3.35
2022-10-28T06:17:31.451Z,4.00
2022-10-28T06:19:57.988Z,4.13
2022-10-28T06:22:24.428Z,3.65
2022-10-28T06:24:50.864Z,3.75
2022-10-28T06:27:17.394Z,4.35
2022-10-28T06:29:45.657Z,3.50
2022-10-28T06:32:12.225Z,3.70
2022-10-28T06:34:38.797Z,3.95
2022-10-28T06:37:09.298Z,4.45
2022-10-28T06:39:38.315Z,3.80
2022-10-28T06:42:04.909Z,3.17
2022-10-28T06:44:31.555Z,3.80
2022-10-28T06:47:00.140Z,3.92
2022-10-28T06:49:27.964Z,4.07
2022-10-28T06:51:54.434Z,3.08
2022-10-28T06:54:21.127Z,4.40
2022-10-28T06:56:47.762Z,2.88
2022-10-28T06:59:14.364Z,3.65
2022-10-28T07:01:40.970Z,3.67
2022-10-28T07:04:11.737Z,2.65
2022-10-28T07:06:39.065Z,3.93
2022-10-28T07:09:06.164Z,3.67
2022-10-28T07:11:33.167Z,3.85
2022-10-28T07:14:01.646Z,3.25
2022-10-28T07:16:28.114Z,3.45
2022-10-28T07:18:56.758Z,3.70
2022-10-28T07:21:28.351Z,3.75
2022-10-28T07:23:56.503Z,3.08
2022-10-28T07:26:23.909Z,2.75
2022-10-28T07:28:50.881Z,3.00
2022-10-28T07:31:17.643Z,3.13
2022-10-28T07:33:44.713Z,4.00
2022-10-28T07:36:11.657Z,3.38
2022-10-28T07:38:38.188Z,3.30
2022-10-28T07:41:06.708Z,3.50
2022-10-28T07:43:37.047Z,3.60
2022-10-28T07:46:03.874Z,3.40
2022-10-28T07:48:30.511Z,3.25
2022-10-28T07:51:00.394Z,2.97
2022-10-28T07:53:28.744Z,3.10
2022-10-28T07:56:00.995Z,3.07
2022-10-28T07:58:28.135Z,3.45
2022-10-28T08:00:54.977Z,4.10
2022-10-28T08:03:21.948Z,3.15
2022-10-28T08:05:48.463Z,3.40
2022-10-28T08:08:15.013Z,4.20
2022-10-28T08:10:41.762Z,3.22
2022-10-28T08:13:08.341Z,3.38
2022-10-28T08:15:34.907Z,3.97
2022-10-28T08:18:01.383Z,3.58
2022-10-28T08:20:27.956Z,3.00
2022-10-28T08:22:54.859Z,3.40
2022-10-28T08:25:22.093Z,2.67
2022-10-28T08:27:48.494Z,3.08
2022-10-28T08:30:15.155Z,3.70
2022-10-28T08:32:41.575Z,3.43
2022-10-28T08:35:08.666Z,3.13
2022-10-28T08:37:35.499Z,3.60
2022-10-28T08:40:02.728Z,3.10
2022-10-28T08:42:44.338Z,2.72
2022-10-28T08:46:01.340Z,3.77
2022-10-28T08:48:32.728Z,3.55
2022-10-28T08:51:22.706Z,4.32
2022-10-28T08:53:56.949Z,3.95
2022-10-28T08:56:35.491Z,3.38
2022-10-28T08:59:06.272Z,4.23
2022-10-28T09:01:42.021Z,4.32
2022-10-28T09:04:26.290Z,3.58
2022-10-28T09:06:53.760Z,3.33
2022-10-28T09:09:22.495Z,3.67
2022-10-28T09:12:02.152Z,3.30
2022-10-28T09:14:41.911Z,3.03
2022-10-28T09:17:17.598Z,2.83
2022-10-28T09:19:52.678Z,2.97
2022-10-28T09:22:38.298Z,3.28
2022-10-28T09:25:36.545Z,3.00
2022-10-28T09:28:21.697Z,3.13
2022-10-28T09:31:04.762Z,2.95
2022-10-28T09:34:00.358Z,3.20
2022-10-28T09:36:37.769Z,3.47
2022-10-28T09:39:07.450Z,3.33
2022-10-28T09:41:38.439Z,3.03
2022-10-28T09:44:18.485Z,3.28
2022-10-28T09:46:48.609Z,3.05
2022-10-28T09:49:22.223Z,3.30
2022-10-28T09:51:54.258Z,3.40
2022-10-28T09:54:34.632Z,3.40
2022-10-28T09:57:02.624Z,3.85
2022-10-28T09:59:29.139Z,3.80
2022-10-28T10:01:56.181Z,3.33
2022-10-28T10:04:25.218Z,3.30
2022-10-28T10:07:01.630Z,2.85
2022-10-28T10:09:31.287Z,2.95
2022-10-28T10:12:05.329Z,3.22
2022-10-28T10:14:44.419Z,3.13
2022-10-28T10:17:30.630Z,2.77
2022-10-28T10:20:08.446Z,3.17
2022-10-28T10:22:38.321Z,3.13
2022-10-28T10:25:24.088Z,2.70
2022-10-28T10:28:14.998Z,3.00
2022-10-28T10:30:53.992Z,2.97
2022-10-28T10:33:34.950Z,2.70
2022-10-28T10:36:10.484Z,3.15
2022-10-28T10:38:39.074Z,2.60
2022-10-28T10:41:05.721Z,3.67
2022-10-28T10:43:33.397Z,2.87
2022-10-28T10:46:17.845Z,3.05
2022-10-28T10:48:46.425Z,3.65
2022-10-28T10:51:23.570Z,3.25
2022-10-28T10:53:54.607Z,3.88
2022-10-28T10:56:33.198Z,2.43
2022-10-28T10:59:02.790Z,3.05
2022-10-28T11:01:35.899Z,3.17
2022-10-28T11:04:17.235Z,2.60
2022-10-28T11:06:49.260Z,2.88
2022-10-28T11:09:25.304Z,2.87
2022-10-28T11:11:55.508Z,3.55
2022-10-28T11:14:30.448Z,2.63
2022-10-28T11:16:59.680Z,2.13
2022-10-28T11:19:33.661Z,3.38
2022-10-28T11:22:03.144Z,2.13
2022-10-28T11:24:47.254Z,2.83
2022-10-28T11:27:32.615Z,2.75
2022-10-28T11:30:00.545Z,3.53
2022-10-28T11:32:33.160Z,3.08
2022-10-28T11:35:25.503Z,3.13
2022-10-28T11:38:06.427Z,4.00
2022-10-28T11:41:17.659Z,2.95
2022-10-28T11:43:54.582Z,3.05
2022-10-28T11:47:13.100Z,3.35
2022-10-28T11:49:59.312Z,2.83
2022-10-28T11:52:45.271Z,2.92
2022-10-28T11:55:38.178Z,2.85
2022-10-28T11:58:19.172Z,3.15
2022-10-28T12:01:08.893Z,2.38
2022-10-28T12:03:42.821Z,2.70
2022-10-28T12:06:16.789Z,2.53
2022-10-28T12:12:09.901Z,2.45
2022-10-28T12:15:26.927Z,3.30
2022-10-28T12:18:06.295Z,2.90
2022-10-28T12:20:41.266Z,2.67
2022-10-28T12:23:13.804Z,3.00
2022-10-28T12:25:45.074Z,2.58
2022-10-28T12:28:21.480Z,2.58
2022-10-28T12:30:50.544Z,2.53
2022-10-28T12:33:42.108Z,2.60
2022-10-28T12:36:10.076Z,2.50
2022-10-28T12:38:48.486Z,3.33
2022-10-28T12:41:19.042Z,2.45
2022-10-28T12:44:04.437Z,1.87
2022-10-28T12:49:24.054Z,2.63
2022-10-28T12:51:52.331Z,2.92
2022-10-28T12:54:25.409Z,2.25
2022-10-28T12:57:08.230Z,2.23
2022-10-28T12:59:45.697Z,2.53
2022-10-28T13:02:25.361Z,2.70
2022-10-28T13:04:52.458Z,2.50
2022-10-28T13:07:54.823Z,2.13
2022-10-28T13:10:49.306Z,1.80
2022-10-28T13:13:35.681Z,1.75
2022-10-28T13:16:43.898Z,2.10
2022-10-28T13:19:24.809Z,2.28
2022-10-28T13:22:18.749Z,2.20
2022-10-28T13:24:45.366Z,2.37
2022-10-28T13:27:14.129Z,3.85
2022-10-28T13:29:43.733Z,2.20
2022-10-28T13:32:43.189Z,3.20
2022-10-28T13:35:30.509Z,2.20
2022-10-28T13:37:58.790Z,2.77
2022-10-28T13:40:31.511Z,2.10
2022-10-28T13:43:00.556Z,2.90
2022-10-28T13:45:48.746Z,2.72
2022-10-28T13:48:42.850Z,2.92
2022-10-28T13:51:09.249Z,2.97
2022-10-28T13:53:44.991Z,2.70
2022-10-28T13:56:31.964Z,2.08
2022-10-28T13:59:02.611Z,1.80
2022-10-28T14:01:41.354Z,2.33
2022-10-28T14:04:36.463Z,2.27
2022-10-28T14:07:12.665Z,2.05
2022-10-28T14:09:41.610Z,2.38
2022-10-28T14:12:33.028Z,2.40
2022-10-28T14:15:21.005Z,2.20
2022-10-28T14:18:00.911Z,2.00
2022-10-28T14:20:40.915Z,2.20
2022-10-28T14:23:22.519Z,3.17
2022-10-28T14:25:53.764Z,2.15
2022-10-28T14:28:32.213Z,2.00
2022-10-28T14:31:41.669Z,1.70
2022-10-28T14:34:14.348Z,2.05
2022-10-28T14:36:49.823Z,1.95
2022-10-28T14:39:29.911Z,2.47
2022-10-28T14:42:03.314Z,2.20
2022-10-28T14:44:51.713Z,2.23
2022-10-28T14:48:03.094Z,2.67
2022-10-28T14:50:47.841Z,2.40
2022-10-28T14:53:20.615Z,2.20
2022-10-28T14:55:52.167Z,1.90
2022-10-28T14:58:30.589Z,2.50
2022-10-28T15:01:01.095Z,2.15
2022-10-28T15:03:28.352Z,2.17
2022-10-28T15:05:54.932Z,2.92
2022-10-28T15:08:21.564Z,2.38
2022-10-28T15:10:49.570Z,2.40
2022-10-28T15:13:18.979Z,1.80
2022-10-28T15:15:53.766Z,2.08
2022-10-28T15:18:23.718Z,1.95
2022-10-28T15:21:06.776Z,1.95
2022-10-28T15:26:16.181Z,2.38
2022-10-28T15:28:43.320Z,2.58
2022-10-28T15:31:09.832Z,2.13
2022-10-28T15:33:41.892Z,2.70
2022-10-28T15:36:23.384Z,1.93
2022-10-28T15:39:16.185Z,2.15
2022-10-28T15:41:45.415Z,2.88
2022-10-28T15:44:38.677Z,2.58
2022-10-28T15:47:18.654Z,2.05
2022-10-28T15:49:59.461Z,1.93
2022-10-28T15:52:33.316Z,2.15
2022-10-28T15:55:02.210Z,2.03
2022-10-28T15:57:31.686Z,1.92
2022-10-28T16:00:27.946Z,1.83
2022-10-28T16:02:56.605Z,1.90
2022-10-28T16:05:32.862Z,2.90
2022-10-28T16:08:07.215Z,2.33
2022-10-28T16:10:43.232Z,1.70
2022-10-28T16:13:20.376Z,1.20
2022-10-28T16:15:56.364Z,1.60
2022-10-28T16:18:25.598Z,1.52
2022-10-28T16:20:54.613Z,2.90
2022-10-28T16:23:24.094Z,1.55
2022-10-28T16:25:50.728Z,1.80
2022-10-28T16:28:24.103Z,1.77
2022-10-28T16:30:53.733Z,1.75
2022-10-28T16:33:27.113Z,1.83
2022-10-28T16:35:53.884Z,1.63
2022-10-28T16:38:20.707Z,1.52
2022-10-28T16:40:51.769Z,1.47
2022-10-28T16:43:21.238Z,1.35
2022-10-28T16:45:49.513Z,2.20
2022-10-28T16:48:17.888Z,1.63
2022-10-28T16:50:49.363Z,1.98
2022-10-28T16:53:16.318Z,1.80
2022-10-28T16:55:42.918Z,1.83
2022-10-28T16:58:09.723Z,2.08
2022-10-28T17:00:36.533Z,1.98
2022-10-28T17:03:03.056Z,1.90
2022-10-28T17:05:29.714Z,1.93
2022-10-28T17:07:56.553Z,2.13
2022-10-28T17:10:24.037Z,1.80
2022-10-28T17:12:50.908Z,2.08
2022-10-28T17:15:18.511Z,1.80
2022-10-28T17:17:50.573Z,2.77
2022-10-28T17:20:17.779Z,1.50
2022-10-28T17:22:44.316Z,2.00
2022-10-28T17:25:11.018Z,2.22
2022-10-28T17:27:37.857Z,1.80
2022-10-28T17:30:05.308Z,1.70
2022-10-28T17:32:32.022Z,1.65
2022-10-28T17:34:58.564Z,2.75
2022-10-28T17:37:25.182Z,1.80
2022-10-28T17:39:52.579Z,2.28
2022-10-28T17:42:19.361Z,2.70
2022-10-28T17:44:45.813Z,1.83
2022-10-28T17:47:12.849Z,3.13
2022-10-28T17:49:40.209Z,1.90
2022-10-28T17:52:06.699Z,2.75
2022-10-28T17:54:33.987Z,2.33
2022-10-28T17:57:00.429Z,2.95
2022-10-28T17:59:27.029Z,3.17
2022-10-28T18:01:54.757Z,2.53
2022-10-28T18:04:26.188Z,3.13
2022-10-28T18:06:55.062Z,1.90
2022-10-28T18:09:24.384Z,1.92
2022-10-28T18:11:51.186Z,1.88
2022-10-28T18:14:20.140Z,1.98
2022-10-28T18:16:52.533Z,2.33
2022-10-28T18:19:19.072Z,2.07
2022-10-28T18:21:47.805Z,1.90
2022-10-28T18:24:14.358Z,1.88
2022-10-28T18:26:41.182Z,2.22
2022-10-28T18:29:10.003Z,2.28
2022-10-28T18:31:37.867Z,1.97
2022-10-28T18:34:05.125Z,1.30
2022-10-28T18:36:35.642Z,2.45
2022-10-28T18:39:04.886Z,2.25
2022-10-28T18:41:32.573Z,1.75
2022-10-28T18:44:01.346Z,2.97
2022-10-28T18:46:29.351Z,2.42
2022-10-28T18:48:57.423Z,2.30
2022-10-28T18:51:24.598Z,2.85
2022-10-28T18:53:51.904Z,2.40
2022-10-28T18:56:24.020Z,2.37
2022-10-28T18:58:51.972Z,5.07
2022-10-28T19:01:27.184Z,2.10
2022-10-28T19:03:55.999Z,2.60
2022-10-28T19:06:24.727Z,3.03
2022-10-28T19:08:56.212Z,2.20
2022-10-28T19:11:30.399Z,3.65
2022-10-28T19:14:02.747Z,2.65
2022-10-28T19:16:31.471Z,2.00
2022-10-28T19:18:59.358Z,2.50
2022-10-28T19:21:27.344Z,2.97
2022-10-28T19:23:54.608Z,2.60
2022-10-28T19:26:22.946Z,2.67
2022-10-28T19:28:50.392Z,2.70
2022-10-28T19:31:19.297Z,4.05
2022-10-28T19:33:46.246Z,2.90
2022-10-28T19:36:12.870Z,2.95
2022-10-28T19:38:39.355Z,2.75
2022-10-28T19:41:09.860Z,2.50
2022-10-28T19:43:37.112Z,2.80
2022-10-28T19:46:06.207Z,3.63
2022-10-28T19:48:34.078Z,2.17
2022-10-28T19:51:00.855Z,2.25
2022-10-28T19:53:27.621Z,2.00
2022-10-28T19:55:59.772Z,2.30
2022-10-28T19:58:27.596Z,1.43
2022-10-28T20:01:03.529Z,1.60
2022-10-28T20:03:34.342Z,1.40
2022-10-28T20:06:04.498Z,1.85
2022-10-28T20:08:33.515Z,1.20
2022-10-28T20:11:02.246Z,1.00
2022-10-28T20:13:28.827Z,1.25
2022-10-28T20:15:55.608Z,1.15
2022-10-28T20:18:23.095Z,1.23
2022-10-28T20:20:49.836Z,2.08
2022-10-28T20:23:16.313Z,1.53
2022-10-28T20:25:51.932Z,1.77
2022-10-28T20:28:18.690Z,1.17
2022-10-28T20:30:55.433Z,1.65
2022-10-28T20:33:22.068Z,1.13
2022-10-28T20:35:48.536Z,1.80
2022-10-28T20:38:15.114Z,1.38
2022-10-28T20:40:41.709Z,0.95
2022-10-28T20:43:08.163Z,1.15
2022-10-28T20:45:34.635Z,1.35
2022-10-28T20:48:01.126Z,1.77
2022-10-28T20:50:29.288Z,1.55
2022-10-28T20:52:56.018Z,2.42
2022-10-28T20:55:22.765Z,2.45
2022-10-28T20:57:49.357Z,2.35
2022-10-28T21:00:17.237Z,1.57
2022-10-28T21:02:45.245Z,1.88
2022-10-28T21:05:11.864Z,1.92
2022-10-28T21:07:38.521Z,1.52
2022-10-28T21:10:05.316Z,1.83
2022-10-28T21:12:31.864Z,1.57
2022-10-28T21:14:58.296Z,1.92
2022-10-28T21:17:24.813Z,2.25
2022-10-28T21:19:51.418Z,3.17
2022-10-28T21:22:19.167Z,1.25
2022-10-28T21:24:45.729Z,1.73
2022-10-28T21:27:12.186Z,1.00
2022-10-28T21:29:38.869Z,1.98
2022-10-28T21:32:05.586Z,1.42
2022-10-28T21:34:32.101Z,1.58
2022-10-28T21:36:58.738Z,1.33
2022-10-28T21:39:25.306Z,1.80
2022-10-28T21:41:51.811Z,1.42
2022-10-28T21:44:18.354Z,1.52
2022-10-28T21:46:47.811Z,2.08
2022-10-28T21:49:14.577Z,2.77
2022-10-28T21:51:42.181Z,2.83
2022-10-28T21:54:08.643Z,1.52
2022-10-28T21:56:35.022Z,1.98
2022-10-28T21:59:01.413Z,4.68
2022-10-28T22:01:27.833Z,3.13
2022-10-28T22:03:55.433Z,2.40
2022-10-28T22:06:23.418Z,3.15
2022-10-28T22:08:53.113Z,1.88
2022-10-28T22:11:22.123Z,2.10
2022-10-28T22:13:56.933Z,2.70
2022-10-28T22:16:23.980Z,2.25
2022-10-28T22:18:50.751Z,2.53
2022-10-28T22:21:19.639Z,2.67
2022-10-28T22:23:47.049Z,2.78
2022-10-28T22:26:22.616Z,2.40
2022-10-28T22:28:49.671Z,2.42
2022-10-28T22:31:18.804Z,2.90
2022-10-28T22:36:18.899Z,3.25
2022-10-28T22:38:45.831Z,3.20
2022-10-28T22:41:18.368Z,2.35
2022-10-28T22:43:47.845Z,2.22
2022-10-28T22:46:18.223Z,2.30
2022-10-28T22:48:46.643Z,2.75
2022-10-28T22:51:13.632Z,2.57
2022-10-28T22:53:41.018Z,2.13
2022-10-28T22:56:10.802Z,1.88
2022-10-28T22:58:37.237Z,1.88
2022-10-28T23:01:18.078Z,2.20
2022-10-28T23:03:47.120Z,1.87
2022-10-28T23:06:15.882Z,2.25
2022-10-28T23:08:44.806Z,2.25
2022-10-28T23:11:12.438Z,2.30
2022-10-28T23:13:39.072Z,2.28
2022-10-28T23:16:08.899Z,1.90
2022-10-28T23:18:35.505Z,2.50
2022-10-28T23:21:18.443Z,2.60
2022-10-28T23:23:49.824Z,2.08
2022-10-28T23:26:19.815Z,1.70
2022-10-28T23:28:51.087Z,1.90
2022-10-28T23:31:22.012Z,1.50
2022-10-28T23:33:49.621Z,1.55
2022-10-28T23:36:16.395Z,1.50
2022-10-28T23:38:43.082Z,2.92
2022-10-28T23:41:14.487Z,1.70
2022-10-28T23:43:41.767Z,2.17
2022-10-28T23:46:08.807Z,1.58
2022-10-28T23:48:35.713Z,2.00
2022-10-28T23:51:02.239Z,1.80
2022-10-28T23:53:30.590Z,1.33
2022-10-28T23:55:57.636Z,1.58
2022-10-28T23:58:24.418Z,1.35
